Terminal Aerodrome Forecast
Issued by NWS Tiyan, Guam

Home | Current Version | Previous Version | Text Only | Print | Product List | Glossary On
Versions: 1 2 3 4 5 6 7 8 9 10 11 12 13 14 15 16 17 18 19 20 21 22 23 24 25 26 27 28 29 30 31 32 33 34
916
FTPQ31 PGUM 261722
TAFGUM
TAF
PGUM 261722Z 2618/2724 06008KT P6SM VCSH FEW018 SCT050 BKN140
     FM270100 05012KT P6SM VCSH FEW020 SCT050 SCT140=

USA.gov is the U.S. government's official web portal to all federal, state and local government web resources and services.